sensor_id;sensor_type;location;lat;lon;timestamp;P1;durP1;ratioP1;P2;durP2;ratioP2
4186;SDS011;2107;52.306;10.484;2022-12-18T00:00:55;0.20;;;0.20;;
4186;SDS011;2107;52.306;10.484;2022-12-18T00:03:22;0.20;;;0.20;;
4186;SDS011;2107;52.306;10.484;2022-12-18T00:05:49;0.20;;;0.20;;
4186;SDS011;2107;52.306;10.484;2022-12-18T00:08:17;0.10;;;0.10;;
4186;SDS011;2107;52.306;10.484;2022-12-18T00:10:46;0.10;;;0.10;;
4186;SDS011;2107;52.306;10.484;2022-12-18T00:13:13;0.17;;;0.17;;
4186;SDS011;2107;52.306;10.484;2022-12-18T00:15:39;0.20;;;0.20;;
4186;SDS011;2107;52.306;10.484;2022-12-18T00:18:06;0.10;;;0.10;;
4186;SDS011;2107;52.306;10.484;2022-12-18T00:20:35;0.10;;;0.10;;
4186;SDS011;2107;52.306;10.484;2022-12-18T00:23:03;0.20;;;0.20;;
4186;SDS011;2107;52.306;10.484;2022-12-18T00:25:32;0.20;;;0.20;;
4186;SDS011;2107;52.306;10.484;2022-12-18T00:28:01;0.20;;;0.20;;
4186;SDS011;2107;52.306;10.484;2022-12-18T00:30:28;0.13;;;0.13;;
4186;SDS011;2107;52.306;10.484;2022-12-18T00:32:55;0.20;;;0.20;;
4186;SDS011;2107;52.306;10.484;2022-12-18T00:35:23;0.20;;;0.20;;
4186;SDS011;2107;52.306;10.484;2022-12-18T00:37:50;0.10;;;0.10;;
4186;SDS011;2107;52.306;10.484;2022-12-18T00:40:17;0.10;;;0.10;;
4186;SDS011;2107;52.306;10.484;2022-12-18T00:42:44;0.10;;;0.10;;
4186;SDS011;2107;52.306;10.484;2022-12-18T00:45:23;0.10;;;0.10;;
4186;SDS011;2107;52.306;10.484;2022-12-18T00:47:51;0.10;;;0.10;;
4186;SDS011;2107;52.306;10.484;2022-12-18T00:50:18;0.10;;;0.10;;
4186;SDS011;2107;52.306;10.484;2022-12-18T00:52:45;0.10;;;0.10;;
4186;SDS011;2107;52.306;10.484;2022-12-18T00:55:12;0.10;;;0.10;;
4186;SDS011;2107;52.306;10.484;2022-12-18T00:57:39;0.10;;;0.10;;
4186;SDS011;2107;52.306;10.484;2022-12-18T01:00:07;0.10;;;0.10;;
4186;SDS011;2107;52.306;10.484;2022-12-18T01:02:39;0.10;;;0.10;;
4186;SDS011;2107;52.306;10.484;2022-12-18T01:05:07;0.10;;;0.10;;
4186;SDS011;2107;52.306;10.484;2022-12-18T01:07:34;0.20;;;0.20;;
4186;SDS011;2107;52.306;10.484;2022-12-18T01:10:01;0.10;;;0.10;;
4186;SDS011;2107;52.306;10.484;2022-12-18T01:12:29;0.20;;;0.20;;
4186;SDS011;2107;52.306;10.484;2022-12-18T01:14:56;0.20;;;0.20;;
4186;SDS011;2107;52.306;10.484;2022-12-18T01:17:23;0.20;;;0.20;;
4186;SDS011;2107;52.306;10.484;2022-12-18T01:19:51;0.20;;;0.20;;
4186;SDS011;2107;52.306;10.484;2022-12-18T01:22:18;0.20;;;0.20;;
4186;SDS011;2107;52.306;10.484;2022-12-18T01:24:44;0.20;;;0.20;;
4186;SDS011;2107;52.306;10.484;2022-12-18T01:27:11;0.17;;;0.17;;
4186;SDS011;2107;52.306;10.484;2022-12-18T01:29:38;0.13;;;0.13;;
4186;SDS011;2107;52.306;10.484;2022-12-18T01:32:05;0.10;;;0.10;;
4186;SDS011;2107;52.306;10.484;2022-12-18T01:34:32;0.10;;;0.10;;
4186;SDS011;2107;52.306;10.484;2022-12-18T01:37:00;0.10;;;0.10;;
4186;SDS011;2107;52.306;10.484;2022-12-18T01:39:29;0.20;;;0.20;;
4186;SDS011;2107;52.306;10.484;2022-12-18T01:41:57;0.20;;;0.20;;
4186;SDS011;2107;52.306;10.484;2022-12-18T01:44:53;0.10;;;0.10;;
4186;SDS011;2107;52.306;10.484;2022-12-18T01:47:25;0.20;;;0.20;;
4186;SDS011;2107;52.306;10.484;2022-12-18T01:49:55;0.10;;;0.10;;
4186;SDS011;2107;52.306;10.484;2022-12-18T01:52:25;0.20;;;0.20;;
4186;SDS011;2107;52.306;10.484;2022-12-18T01:54:55;0.20;;;0.20;;
4186;SDS011;2107;52.306;10.484;2022-12-18T01:57:23;0.20;;;0.20;;
4186;SDS011;2107;52.306;10.484;2022-12-18T01:59:51;0.10;;;0.10;;
4186;SDS011;2107;52.306;10.484;2022-12-18T02:02:20;0.20;;;0.20;;
4186;SDS011;2107;52.306;10.484;2022-12-18T02:04:47;0.10;;;0.10;;
4186;SDS011;2107;52.306;10.484;2022-12-18T02:07:14;0.20;;;0.20;;
4186;SDS011;2107;52.306;10.484;2022-12-18T02:09:48;0.10;;;0.10;;
4186;SDS011;2107;52.306;10.484;2022-12-18T02:12:21;0.10;;;0.10;;
4186;SDS011;2107;52.306;10.484;2022-12-18T02:14:53;0.10;;;0.10;;
4186;SDS011;2107;52.306;10.484;2022-12-18T02:17:27;0.20;;;0.20;;
4186;SDS011;2107;52.306;10.484;2022-12-18T02:20:04;0.10;;;0.10;;
4186;SDS011;2107;52.306;10.484;2022-12-18T02:22:40;0.10;;;0.10;;
4186;SDS011;2107;52.306;10.484;2022-12-18T02:25:24;0.10;;;0.10;;
4186;SDS011;2107;52.306;10.484;2022-12-18T02:28:03;0.20;;;0.20;;
4186;SDS011;2107;52.306;10.484;2022-12-18T02:30:32;0.10;;;0.10;;
4186;SDS011;2107;52.306;10.484;2022-12-18T02:33:01;0.20;;;0.20;;
4186;SDS011;2107;52.306;10.484;2022-12-18T02:35:30;0.20;;;0.20;;
4186;SDS011;2107;52.306;10.484;2022-12-18T02:37:58;0.10;;;0.10;;
4186;SDS011;2107;52.306;10.484;2022-12-18T02:40:26;0.10;;;0.10;;
4186;SDS011;2107;52.306;10.484;2022-12-18T02:42:54;0.20;;;0.20;;
4186;SDS011;2107;52.306;10.484;2022-12-18T02:45:22;0.10;;;0.10;;
4186;SDS011;2107;52.306;10.484;2022-12-18T02:47:49;0.10;;;0.10;;
4186;SDS011;2107;52.306;10.484;2022-12-18T02:50:18;0.10;;;0.10;;
4186;SDS011;2107;52.306;10.484;2022-12-18T02:52:51;0.10;;;0.10;;
4186;SDS011;2107;52.306;10.484;2022-12-18T02:55:28;0.10;;;0.10;;
4186;SDS011;2107;52.306;10.484;2022-12-18T02:58:07;0.20;;;0.20;;
4186;SDS011;2107;52.306;10.484;2022-12-18T03:00:43;0.10;;;0.10;;
4186;SDS011;2107;52.306;10.484;2022-12-18T03:03:16;0.10;;;0.10;;
4186;SDS011;2107;52.306;10.484;2022-12-18T03:05:48;0.10;;;0.10;;
4186;SDS011;2107;52.306;10.484;2022-12-18T03:08:20;0.10;;;0.10;;
4186;SDS011;2107;52.306;10.484;2022-12-18T03:10:51;0.10;;;0.10;;
4186;SDS011;2107;52.306;10.484;2022-12-18T03:13:23;0.20;;;0.20;;
4186;SDS011;2107;52.306;10.484;2022-12-18T03:15:59;0.10;;;0.10;;
4186;SDS011;2107;52.306;10.484;2022-12-18T03:18:29;0.10;;;0.10;;
4186;SDS011;2107;52.306;10.484;2022-12-18T03:21:00;0.10;;;0.10;;
4186;SDS011;2107;52.306;10.484;2022-12-18T03:23:32;0.20;;;0.20;;
4186;SDS011;2107;52.306;10.484;2022-12-18T03:26:05;0.10;;;0.10;;
4186;SDS011;2107;52.306;10.484;2022-12-18T03:28:36;0.10;;;0.10;;
4186;SDS011;2107;52.306;10.484;2022-12-18T03:31:07;0.20;;;0.20;;
4186;SDS011;2107;52.306;10.484;2022-12-18T03:33:37;0.10;;;0.10;;
4186;SDS011;2107;52.306;10.484;2022-12-18T03:36:07;0.10;;;0.10;;
4186;SDS011;2107;52.306;10.484;2022-12-18T03:38:34;0.10;;;0.10;;
4186;SDS011;2107;52.306;10.484;2022-12-18T03:41:03;0.10;;;0.10;;
4186;SDS011;2107;52.306;10.484;2022-12-18T03:43:40;0.10;;;0.10;;
4186;SDS011;2107;52.306;10.484;2022-12-18T03:46:16;0.10;;;0.10;;
4186;SDS011;2107;52.306;10.484;2022-12-18T03:48:51;0.20;;;0.20;;
4186;SDS011;2107;52.306;10.484;2022-12-18T03:51:24;0.10;;;0.10;;
4186;SDS011;2107;52.306;10.484;2022-12-18T03:53:54;0.10;;;0.10;;
4186;SDS011;2107;52.306;10.484;2022-12-18T03:56:25;0.10;;;0.10;;
4186;SDS011;2107;52.306;10.484;2022-12-18T03:58:55;0.10;;;0.10;;
4186;SDS011;2107;52.306;10.484;2022-12-18T04:01:28;0.10;;;0.10;;
4186;SDS011;2107;52.306;10.484;2022-12-18T04:03:57;0.10;;;0.10;;
4186;SDS011;2107;52.306;10.484;2022-12-18T04:06:26;0.20;;;0.20;;
4186;SDS011;2107;52.306;10.484;2022-12-18T04:08:54;0.10;;;0.10;;
4186;SDS011;2107;52.306;10.484;2022-12-18T04:11:22;0.10;;;0.10;;
4186;SDS011;2107;52.306;10.484;2022-12-18T04:13:49;0.10;;;0.10;;
4186;SDS011;2107;52.306;10.484;2022-12-18T04:16:15;0.20;;;0.20;;
4186;SDS011;2107;52.306;10.484;2022-12-18T04:18:43;0.10;;;0.10;;
4186;SDS011;2107;52.306;10.484;2022-12-18T04:21:10;0.20;;;0.20;;
4186;SDS011;2107;52.306;10.484;2022-12-18T04:23:37;0.10;;;0.10;;
4186;SDS011;2107;52.306;10.484;2022-12-18T04:26:04;0.20;;;0.20;;
4186;SDS011;2107;52.306;10.484;2022-12-18T04:28:31;0.20;;;0.20;;
4186;SDS011;2107;52.306;10.484;2022-12-18T04:30:57;0.20;;;0.20;;
4186;SDS011;2107;52.306;10.484;2022-12-18T04:33:24;0.20;;;0.20;;
4186;SDS011;2107;52.306;10.484;2022-12-18T04:35:53;0.20;;;0.20;;
4186;SDS011;2107;52.306;10.484;2022-12-18T04:38:19;0.20;;;0.20;;
4186;SDS011;2107;52.306;10.484;2022-12-18T04:40:46;0.20;;;0.20;;
4186;SDS011;2107;52.306;10.484;2022-12-18T04:43:13;0.20;;;0.20;;
4186;SDS011;2107;52.306;10.484;2022-12-18T04:45:40;0.20;;;0.20;;
4186;SDS011;2107;52.306;10.484;2022-12-18T04:48:07;0.20;;;0.20;;
4186;SDS011;2107;52.306;10.484;2022-12-18T04:50:33;0.20;;;0.20;;
4186;SDS011;2107;52.306;10.484;2022-12-18T04:53:02;0.20;;;0.20;;
4186;SDS011;2107;52.306;10.484;2022-12-18T04:55:29;0.10;;;0.10;;
4186;SDS011;2107;52.306;10.484;2022-12-18T04:57:56;0.20;;;0.20;;
4186;SDS011;2107;52.306;10.484;2022-12-18T05:00:22;0.10;;;0.10;;
4186;SDS011;2107;52.306;10.484;2022-12-18T05:02:49;0.10;;;0.10;;
4186;SDS011;2107;52.306;10.484;2022-12-18T05:05:16;0.10;;;0.10;;
4186;SDS011;2107;52.306;10.484;2022-12-18T05:07:43;0.20;;;0.20;;
4186;SDS011;2107;52.306;10.484;2022-12-18T05:10:11;0.10;;;0.10;;
4186;SDS011;2107;52.306;10.484;2022-12-18T05:12:38;0.10;;;0.10;;
4186;SDS011;2107;52.306;10.484;2022-12-18T05:15:23;0.10;;;0.10;;
4186;SDS011;2107;52.306;10.484;2022-12-18T05:17:50;0.10;;;0.10;;
4186;SDS011;2107;52.306;10.484;2022-12-18T05:20:17;0.10;;;0.10;;
4186;SDS011;2107;52.306;10.484;2022-12-18T05:22:44;0.20;;;0.20;;
4186;SDS011;2107;52.306;10.484;2022-12-18T05:25:13;0.20;;;0.20;;
4186;SDS011;2107;52.306;10.484;2022-12-18T05:27:40;0.10;;;0.10;;
4186;SDS011;2107;52.306;10.484;2022-12-18T05:30:07;0.13;;;0.13;;
4186;SDS011;2107;52.306;10.484;2022-12-18T05:32:35;0.10;;;0.10;;
4186;SDS011;2107;52.306;10.484;2022-12-18T05:35:02;0.10;;;0.10;;
4186;SDS011;2107;52.306;10.484;2022-12-18T05:37:30;0.13;;;0.13;;
4186;SDS011;2107;52.306;10.484;2022-12-18T05:39:57;0.10;;;0.10;;
4186;SDS011;2107;52.306;10.484;2022-12-18T05:42:25;0.10;;;0.10;;
4186;SDS011;2107;52.306;10.484;2022-12-18T05:44:52;0.10;;;0.10;;
4186;SDS011;2107;52.306;10.484;2022-12-18T05:47:18;0.10;;;0.10;;
4186;SDS011;2107;52.306;10.484;2022-12-18T05:49:45;0.10;;;0.10;;
4186;SDS011;2107;52.306;10.484;2022-12-18T05:52:12;0.17;;;0.17;;
4186;SDS011;2107;52.306;10.484;2022-12-18T05:54:39;0.10;;;0.10;;
4186;SDS011;2107;52.306;10.484;2022-12-18T05:57:06;0.20;;;0.20;;
4186;SDS011;2107;52.306;10.484;2022-12-18T05:59:34;0.20;;;0.20;;
4186;SDS011;2107;52.306;10.484;2022-12-18T06:02:01;0.20;;;0.20;;
4186;SDS011;2107;52.306;10.484;2022-12-18T06:04:28;0.20;;;0.20;;
4186;SDS011;2107;52.306;10.484;2022-12-18T06:06:56;0.20;;;0.20;;
4186;SDS011;2107;52.306;10.484;2022-12-18T06:09:23;0.20;;;0.20;;
4186;SDS011;2107;52.306;10.484;2022-12-18T06:11:50;0.17;;;0.17;;
4186;SDS011;2107;52.306;10.484;2022-12-18T06:14:18;0.10;;;0.10;;
4186;SDS011;2107;52.306;10.484;2022-12-18T06:16:46;0.20;;;0.20;;
4186;SDS011;2107;52.306;10.484;2022-12-18T06:19:14;0.20;;;0.20;;
4186;SDS011;2107;52.306;10.484;2022-12-18T06:21:42;0.20;;;0.20;;
4186;SDS011;2107;52.306;10.484;2022-12-18T06:24:09;0.10;;;0.10;;
4186;SDS011;2107;52.306;10.484;2022-12-18T06:26:36;0.20;;;0.20;;
4186;SDS011;2107;52.306;10.484;2022-12-18T06:29:03;0.20;;;0.20;;
4186;SDS011;2107;52.306;10.484;2022-12-18T06:31:30;0.20;;;0.20;;
4186;SDS011;2107;52.306;10.484;2022-12-18T06:33:59;0.20;;;0.20;;
4186;SDS011;2107;52.306;10.484;2022-12-18T06:36:28;0.20;;;0.20;;
4186;SDS011;2107;52.306;10.484;2022-12-18T06:38:57;0.20;;;0.20;;
4186;SDS011;2107;52.306;10.484;2022-12-18T06:41:24;0.20;;;0.20;;
4186;SDS011;2107;52.306;10.484;2022-12-18T06:43:51;0.20;;;0.20;;
4186;SDS011;2107;52.306;10.484;2022-12-18T06:46:18;0.10;;;0.10;;
4186;SDS011;2107;52.306;10.484;2022-12-18T06:48:49;0.20;;;0.20;;
4186;SDS011;2107;52.306;10.484;2022-12-18T06:51:18;0.20;;;0.20;;
4186;SDS011;2107;52.306;10.484;2022-12-18T06:53:46;0.20;;;0.20;;
4186;SDS011;2107;52.306;10.484;2022-12-18T06:56:13;0.20;;;0.20;;
4186;SDS011;2107;52.306;10.484;2022-12-18T06:58:40;0.20;;;0.20;;
4186;SDS011;2107;52.306;10.484;2022-12-18T07:01:08;0.20;;;0.20;;
4186;SDS011;2107;52.306;10.484;2022-12-18T07:03:36;0.20;;;0.20;;
4186;SDS011;2107;52.306;10.484;2022-12-18T07:06:03;0.20;;;0.20;;
4186;SDS011;2107;52.306;10.484;2022-12-18T07:08:31;0.20;;;0.20;;
4186;SDS011;2107;52.306;10.484;2022-12-18T07:10:58;0.20;;;0.20;;
4186;SDS011;2107;52.306;10.484;2022-12-18T07:13:28;0.30;;;0.30;;
4186;SDS011;2107;52.306;10.484;2022-12-18T07:15:55;0.30;;;0.30;;
4186;SDS011;2107;52.306;10.484;2022-12-18T07:18:29;0.20;;;0.20;;
4186;SDS011;2107;52.306;10.484;2022-12-18T07:20:56;0.20;;;0.20;;
4186;SDS011;2107;52.306;10.484;2022-12-18T07:23:23;0.20;;;0.20;;
4186;SDS011;2107;52.306;10.484;2022-12-18T07:25:51;0.20;;;0.20;;
4186;SDS011;2107;52.306;10.484;2022-12-18T07:28:18;0.20;;;0.20;;
4186;SDS011;2107;52.306;10.484;2022-12-18T07:30:45;0.20;;;0.20;;
4186;SDS011;2107;52.306;10.484;2022-12-18T07:33:12;0.30;;;0.30;;
4186;SDS011;2107;52.306;10.484;2022-12-18T07:35:39;0.30;;;0.30;;
4186;SDS011;2107;52.306;10.484;2022-12-18T07:38:05;0.20;;;0.20;;
4186;SDS011;2107;52.306;10.484;2022-12-18T07:40:32;0.27;;;0.27;;
4186;SDS011;2107;52.306;10.484;2022-12-18T07:43:01;0.30;;;0.30;;
4186;SDS011;2107;52.306;10.484;2022-12-18T07:45:27;0.30;;;0.30;;
4186;SDS011;2107;52.306;10.484;2022-12-18T07:47:57;0.30;;;0.30;;
4186;SDS011;2107;52.306;10.484;2022-12-18T07:50:24;0.20;;;0.20;;
4186;SDS011;2107;52.306;10.484;2022-12-18T07:52:51;0.20;;;0.20;;
4186;SDS011;2107;52.306;10.484;2022-12-18T07:55:17;0.20;;;0.20;;
4186;SDS011;2107;52.306;10.484;2022-12-18T07:57:44;0.20;;;0.20;;
4186;SDS011;2107;52.306;10.484;2022-12-18T08:00:13;0.20;;;0.20;;
4186;SDS011;2107;52.306;10.484;2022-12-18T08:02:41;0.20;;;0.20;;
4186;SDS011;2107;52.306;10.484;2022-12-18T08:05:08;0.10;;;0.10;;
4186;SDS011;2107;52.306;10.484;2022-12-18T08:07:35;0.20;;;0.20;;
4186;SDS011;2107;52.306;10.484;2022-12-18T08:10:02;0.10;;;0.10;;
4186;SDS011;2107;52.306;10.484;2022-12-18T08:12:29;0.20;;;0.20;;
4186;SDS011;2107;52.306;10.484;2022-12-18T08:14:56;0.10;;;0.10;;
4186;SDS011;2107;52.306;10.484;2022-12-18T08:17:24;0.10;;;0.10;;
4186;SDS011;2107;52.306;10.484;2022-12-18T08:19:51;0.10;;;0.10;;
4186;SDS011;2107;52.306;10.484;2022-12-18T08:22:18;0.20;;;0.20;;
4186;SDS011;2107;52.306;10.484;2022-12-18T08:24:44;0.20;;;0.20;;
4186;SDS011;2107;52.306;10.484;2022-12-18T08:27:12;0.30;;;0.30;;
4186;SDS011;2107;52.306;10.484;2022-12-18T08:29:39;0.30;;;0.30;;
4186;SDS011;2107;52.306;10.484;2022-12-18T08:32:05;0.30;;;0.30;;
4186;SDS011;2107;52.306;10.484;2022-12-18T08:34:34;0.30;;;0.30;;
4186;SDS011;2107;52.306;10.484;2022-12-18T08:37:01;0.30;;;0.30;;
4186;SDS011;2107;52.306;10.484;2022-12-18T08:39:28;0.20;;;0.20;;
4186;SDS011;2107;52.306;10.484;2022-12-18T08:41:55;0.20;;;0.20;;
4186;SDS011;2107;52.306;10.484;2022-12-18T08:44:39;0.30;;;0.30;;
4186;SDS011;2107;52.306;10.484;2022-12-18T08:47:06;0.30;;;0.30;;
4186;SDS011;2107;52.306;10.484;2022-12-18T08:49:35;0.30;;;0.30;;
4186;SDS011;2107;52.306;10.484;2022-12-18T08:52:02;0.20;;;0.20;;
4186;SDS011;2107;52.306;10.484;2022-12-18T08:54:29;0.20;;;0.20;;
4186;SDS011;2107;52.306;10.484;2022-12-18T08:56:56;0.20;;;0.20;;
4186;SDS011;2107;52.306;10.484;2022-12-18T08:59:23;0.20;;;0.20;;
4186;SDS011;2107;52.306;10.484;2022-12-18T09:01:56;0.20;;;0.20;;
4186;SDS011;2107;52.306;10.484;2022-12-18T09:04:23;0.20;;;0.20;;
4186;SDS011;2107;52.306;10.484;2022-12-18T09:06:51;0.30;;;0.30;;
4186;SDS011;2107;52.306;10.484;2022-12-18T09:09:21;0.40;;;0.40;;
4186;SDS011;2107;52.306;10.484;2022-12-18T09:11:47;0.30;;;0.30;;
4186;SDS011;2107;52.306;10.484;2022-12-18T09:14:14;0.30;;;0.30;;
4186;SDS011;2107;52.306;10.484;2022-12-18T09:16:41;0.30;;;0.30;;
4186;SDS011;2107;52.306;10.484;2022-12-18T09:19:08;0.20;;;0.20;;
4186;SDS011;2107;52.306;10.484;2022-12-18T09:21:36;0.20;;;0.20;;
4186;SDS011;2107;52.306;10.484;2022-12-18T09:24:05;0.30;;;0.30;;
4186;SDS011;2107;52.306;10.484;2022-12-18T09:26:32;0.30;;;0.30;;
4186;SDS011;2107;52.306;10.484;2022-12-18T09:28:59;0.23;;;0.23;;
4186;SDS011;2107;52.306;10.484;2022-12-18T09:31:26;0.30;;;0.30;;
4186;SDS011;2107;52.306;10.484;2022-12-18T09:33:54;0.30;;;0.30;;
4186;SDS011;2107;52.306;10.484;2022-12-18T09:36:21;0.40;;;0.40;;
4186;SDS011;2107;52.306;10.484;2022-12-18T09:38:48;0.30;;;0.30;;
4186;SDS011;2107;52.306;10.484;2022-12-18T09:41:30;0.30;;;0.30;;
4186;SDS011;2107;52.306;10.484;2022-12-18T09:44:05;0.30;;;0.30;;
4186;SDS011;2107;52.306;10.484;2022-12-18T09:46:40;0.30;;;0.30;;
4186;SDS011;2107;52.306;10.484;2022-12-18T09:49:11;0.30;;;0.30;;
4186;SDS011;2107;52.306;10.484;2022-12-18T09:51:41;0.40;;;0.40;;
4186;SDS011;2107;52.306;10.484;2022-12-18T09:54:11;0.27;;;0.27;;
4186;SDS011;2107;52.306;10.484;2022-12-18T09:56:43;0.30;;;0.30;;
4186;SDS011;2107;52.306;10.484;2022-12-18T09:59:15;0.30;;;0.30;;
4186;SDS011;2107;52.306;10.484;2022-12-18T10:01:48;0.30;;;0.30;;
4186;SDS011;2107;52.306;10.484;2022-12-18T10:04:15;0.30;;;0.30;;
4186;SDS011;2107;52.306;10.484;2022-12-18T10:06:43;0.30;;;0.30;;
4186;SDS011;2107;52.306;10.484;2022-12-18T10:09:15;0.30;;;0.30;;
4186;SDS011;2107;52.306;10.484;2022-12-18T10:11:53;0.30;;;0.30;;
4186;SDS011;2107;52.306;10.484;2022-12-18T10:14:27;0.30;;;0.30;;
4186;SDS011;2107;52.306;10.484;2022-12-18T10:17:02;0.33;;;0.33;;
4186;SDS011;2107;52.306;10.484;2022-12-18T10:19:39;0.30;;;0.30;;
4186;SDS011;2107;52.306;10.484;2022-12-18T10:22:17;0.30;;;0.30;;
4186;SDS011;2107;52.306;10.484;2022-12-18T10:24:53;0.40;;;0.40;;
4186;SDS011;2107;52.306;10.484;2022-12-18T10:27:28;0.40;;;0.40;;
4186;SDS011;2107;52.306;10.484;2022-12-18T10:29:56;0.30;;;0.30;;
4186;SDS011;2107;52.306;10.484;2022-12-18T10:32:25;0.40;;;0.40;;
4186;SDS011;2107;52.306;10.484;2022-12-18T10:34:54;0.30;;;0.30;;
4186;SDS011;2107;52.306;10.484;2022-12-18T10:37:23;0.30;;;0.30;;
4186;SDS011;2107;52.306;10.484;2022-12-18T10:40:04;0.30;;;0.30;;
4186;SDS011;2107;52.306;10.484;2022-12-18T10:42:36;0.30;;;0.30;;
4186;SDS011;2107;52.306;10.484;2022-12-18T10:45:05;0.30;;;0.30;;
4186;SDS011;2107;52.306;10.484;2022-12-18T10:47:35;0.30;;;0.30;;
4186;SDS011;2107;52.306;10.484;2022-12-18T10:50:03;0.30;;;0.30;;
4186;SDS011;2107;52.306;10.484;2022-12-18T10:52:30;0.30;;;0.30;;
4186;SDS011;2107;52.306;10.484;2022-12-18T10:54:57;0.30;;;0.30;;
4186;SDS011;2107;52.306;10.484;2022-12-18T10:57:31;0.30;;;0.30;;
4186;SDS011;2107;52.306;10.484;2022-12-18T11:00:19;0.30;;;0.30;;
4186;SDS011;2107;52.306;10.484;2022-12-18T11:02:50;0.30;;;0.30;;
4186;SDS011;2107;52.306;10.484;2022-12-18T11:05:25;0.40;;;0.40;;
4186;SDS011;2107;52.306;10.484;2022-12-18T11:07:53;0.30;;;0.30;;
4186;SDS011;2107;52.306;10.484;2022-12-18T11:10:25;0.30;;;0.30;;
4186;SDS011;2107;52.306;10.484;2022-12-18T11:12:54;0.30;;;0.30;;
4186;SDS011;2107;52.306;10.484;2022-12-18T11:15:23;0.30;;;0.30;;
4186;SDS011;2107;52.306;10.484;2022-12-18T11:17:54;0.40;;;0.40;;
4186;SDS011;2107;52.306;10.484;2022-12-18T11:20:27;0.30;;;0.30;;
4186;SDS011;2107;52.306;10.484;2022-12-18T11:22:58;0.37;;;0.37;;
4186;SDS011;2107;52.306;10.484;2022-12-18T11:25:26;0.43;;;0.43;;
4186;SDS011;2107;52.306;10.484;2022-12-18T11:27:56;0.40;;;0.40;;
4186;SDS011;2107;52.306;10.484;2022-12-18T11:30:28;0.30;;;0.30;;
4186;SDS011;2107;52.306;10.484;2022-12-18T11:32:56;0.40;;;0.40;;
4186;SDS011;2107;52.306;10.484;2022-12-18T11:35:34;0.40;;;0.40;;
4186;SDS011;2107;52.306;10.484;2022-12-18T11:38:06;0.40;;;0.40;;
4186;SDS011;2107;52.306;10.484;2022-12-18T11:40:42;0.40;;;0.40;;
4186;SDS011;2107;52.306;10.484;2022-12-18T11:43:13;0.40;;;0.40;;
4186;SDS011;2107;52.306;10.484;2022-12-18T11:45:45;0.50;;;0.50;;
4186;SDS011;2107;52.306;10.484;2022-12-18T11:48:18;0.40;;;0.40;;
4186;SDS011;2107;52.306;10.484;2022-12-18T11:50:50;0.40;;;0.40;;
4186;SDS011;2107;52.306;10.484;2022-12-18T11:53:18;0.60;;;0.60;;
4186;SDS011;2107;52.306;10.484;2022-12-18T11:58:43;0.50;;;0.50;;
4186;SDS011;2107;52.306;10.484;2022-12-18T12:01:18;0.40;;;0.40;;
4186;SDS011;2107;52.306;10.484;2022-12-18T12:04:00;0.33;;;0.33;;
4186;SDS011;2107;52.306;10.484;2022-12-18T12:06:48;0.40;;;0.40;;
4186;SDS011;2107;52.306;10.484;2022-12-18T12:09:26;0.50;;;0.50;;
4186;SDS011;2107;52.306;10.484;2022-12-18T12:12:03;0.40;;;0.40;;
4186;SDS011;2107;52.306;10.484;2022-12-18T12:14:46;0.40;;;0.40;;
4186;SDS011;2107;52.306;10.484;2022-12-18T12:17:24;0.50;;;0.50;;
4186;SDS011;2107;52.306;10.484;2022-12-18T12:20:02;0.40;;;0.40;;
4186;SDS011;2107;52.306;10.484;2022-12-18T12:22:37;0.50;;;0.50;;
4186;SDS011;2107;52.306;10.484;2022-12-18T12:25:26;0.40;;;0.40;;
4186;SDS011;2107;52.306;10.484;2022-12-18T12:28:02;0.40;;;0.40;;
4186;SDS011;2107;52.306;10.484;2022-12-18T12:30:39;0.40;;;0.40;;
4186;SDS011;2107;52.306;10.484;2022-12-18T12:33:21;0.40;;;0.40;;
4186;SDS011;2107;52.306;10.484;2022-12-18T12:35:58;0.40;;;0.40;;
4186;SDS011;2107;52.306;10.484;2022-12-18T12:38:33;0.40;;;0.40;;
4186;SDS011;2107;52.306;10.484;2022-12-18T12:41:08;0.40;;;0.40;;
4186;SDS011;2107;52.306;10.484;2022-12-18T12:43:53;0.50;;;0.50;;
4186;SDS011;2107;52.306;10.484;2022-12-18T12:46:24;0.50;;;0.50;;
4186;SDS011;2107;52.306;10.484;2022-12-18T12:48:54;0.70;;;0.70;;
4186;SDS011;2107;52.306;10.484;2022-12-18T12:51:23;0.60;;;0.60;;
4186;SDS011;2107;52.306;10.484;2022-12-18T12:53:52;0.50;;;0.50;;
4186;SDS011;2107;52.306;10.484;2022-12-18T12:56:21;0.60;;;0.60;;
4186;SDS011;2107;52.306;10.484;2022-12-18T12:58:56;0.60;;;0.60;;
4186;SDS011;2107;52.306;10.484;2022-12-18T13:01:33;0.50;;;0.50;;
4186;SDS011;2107;52.306;10.484;2022-12-18T13:04:12;0.50;;;0.50;;
4186;SDS011;2107;52.306;10.484;2022-12-18T13:06:49;0.40;;;0.40;;
4186;SDS011;2107;52.306;10.484;2022-12-18T13:09:22;0.40;;;0.40;;
4186;SDS011;2107;52.306;10.484;2022-12-18T13:11:49;0.40;;;0.40;;
4186;SDS011;2107;52.306;10.484;2022-12-18T13:14:34;0.40;;;0.40;;
4186;SDS011;2107;52.306;10.484;2022-12-18T13:20:06;0.40;;;0.40;;
4186;SDS011;2107;52.306;10.484;2022-12-18T13:22:37;0.30;;;0.30;;
4186;SDS011;2107;52.306;10.484;2022-12-18T13:28:11;0.50;;;0.50;;
4186;SDS011;2107;52.306;10.484;2022-12-18T13:30:46;0.40;;;0.40;;
4186;SDS011;2107;52.306;10.484;2022-12-18T13:36:30;0.30;;;0.30;;
4186;SDS011;2107;52.306;10.484;2022-12-18T13:45:39;0.30;;;0.30;;
4186;SDS011;2107;52.306;10.484;2022-12-18T13:48:15;0.40;;;0.40;;
4186;SDS011;2107;52.306;10.484;2022-12-18T13:50:57;0.40;;;0.40;;
4186;SDS011;2107;52.306;10.484;2022-12-18T13:53:29;0.40;;;0.40;;
4186;SDS011;2107;52.306;10.484;2022-12-18T13:56:00;0.40;;;0.40;;
4186;SDS011;2107;52.306;10.484;2022-12-18T13:58:28;0.30;;;0.30;;
4186;SDS011;2107;52.306;10.484;2022-12-18T14:00:55;0.40;;;0.40;;
4186;SDS011;2107;52.306;10.484;2022-12-18T14:03:24;0.40;;;0.40;;
4186;SDS011;2107;52.306;10.484;2022-12-18T14:05:54;0.50;;;0.50;;
4186;SDS011;2107;52.306;10.484;2022-12-18T14:08:24;0.50;;;0.50;;
4186;SDS011;2107;52.306;10.484;2022-12-18T14:10:58;0.40;;;0.40;;
4186;SDS011;2107;52.306;10.484;2022-12-18T14:13:28;0.50;;;0.50;;
4186;SDS011;2107;52.306;10.484;2022-12-18T14:15:59;0.50;;;0.50;;
4186;SDS011;2107;52.306;10.484;2022-12-18T14:18:29;0.50;;;0.50;;
4186;SDS011;2107;52.306;10.484;2022-12-18T14:21:03;0.60;;;0.60;;
4186;SDS011;2107;52.306;10.484;2022-12-18T14:23:33;0.50;;;0.50;;
4186;SDS011;2107;52.306;10.484;2022-12-18T14:26:02;0.50;;;0.50;;
4186;SDS011;2107;52.306;10.484;2022-12-18T14:28:45;0.43;;;0.43;;
4186;SDS011;2107;52.306;10.484;2022-12-18T14:31:16;0.50;;;0.50;;
4186;SDS011;2107;52.306;10.484;2022-12-18T14:33:44;0.40;;;0.40;;
4186;SDS011;2107;52.306;10.484;2022-12-18T14:36:13;0.40;;;0.40;;
4186;SDS011;2107;52.306;10.484;2022-12-18T14:38:47;0.30;;;0.30;;
4186;SDS011;2107;52.306;10.484;2022-12-18T14:41:16;0.40;;;0.40;;
4186;SDS011;2107;52.306;10.484;2022-12-18T14:43:45;0.40;;;0.40;;
4186;SDS011;2107;52.306;10.484;2022-12-18T14:46:25;0.30;;;0.30;;
4186;SDS011;2107;52.306;10.484;2022-12-18T14:48:55;0.40;;;0.40;;
4186;SDS011;2107;52.306;10.484;2022-12-18T14:51:23;0.40;;;0.40;;
4186;SDS011;2107;52.306;10.484;2022-12-18T14:53:56;0.30;;;0.30;;
4186;SDS011;2107;52.306;10.484;2022-12-18T14:56:26;0.40;;;0.40;;
4186;SDS011;2107;52.306;10.484;2022-12-18T14:58:55;0.50;;;0.50;;
4186;SDS011;2107;52.306;10.484;2022-12-18T15:01:25;0.40;;;0.40;;
4186;SDS011;2107;52.306;10.484;2022-12-18T15:03:54;0.50;;;0.50;;
4186;SDS011;2107;52.306;10.484;2022-12-18T15:06:32;0.30;;;0.30;;
4186;SDS011;2107;52.306;10.484;2022-12-18T15:09:03;0.40;;;0.40;;
4186;SDS011;2107;52.306;10.484;2022-12-18T15:11:42;0.40;;;0.40;;
4186;SDS011;2107;52.306;10.484;2022-12-18T15:14:21;0.40;;;0.40;;
4186;SDS011;2107;52.306;10.484;2022-12-18T15:16:51;0.40;;;0.40;;
4186;SDS011;2107;52.306;10.484;2022-12-18T15:19:19;0.40;;;0.40;;
4186;SDS011;2107;52.306;10.484;2022-12-18T15:21:47;0.40;;;0.40;;
4186;SDS011;2107;52.306;10.484;2022-12-18T15:24:18;0.40;;;0.40;;
4186;SDS011;2107;52.306;10.484;2022-12-18T15:26:49;0.40;;;0.40;;
4186;SDS011;2107;52.306;10.484;2022-12-18T15:29:17;0.30;;;0.30;;
4186;SDS011;2107;52.306;10.484;2022-12-18T15:32:03;0.33;;;0.33;;
4186;SDS011;2107;52.306;10.484;2022-12-18T15:34:31;0.30;;;0.30;;
4186;SDS011;2107;52.306;10.484;2022-12-18T15:36:59;0.40;;;0.40;;